sensor_id;sensor_type;location;lat;lon;timestamp;pressure;altitude;pressure_sealevel;temperature;humidity
66762;BME280;53672;48.176;16.338;2023-11-19T00:02:46;99769.44;;;1.66;73.23
66762;BME280;53672;48.176;16.338;2023-11-19T00:07:48;99769.19;;;1.69;73.21
66762;BME280;53672;48.176;16.338;2023-11-19T00:12:49;99776.06;;;1.73;72.82
66762;BME280;53672;48.176;16.338;2023-11-19T00:17:49;99766.75;;;1.77;72.99
66762;BME280;53672;48.176;16.338;2023-11-19T00:22:51;99756.50;;;1.92;71.39
66762;BME280;53672;48.176;16.338;2023-11-19T00:27:52;99764.13;;;2.09;71.04
66762;BME280;53672;48.176;16.338;2023-11-19T00:32:52;99763.91;;;1.90;71.61
66762;BME280;53672;48.176;16.338;2023-11-19T00:37:54;99770.91;;;1.92;71.83
66762;BME280;53672;48.176;16.338;2023-11-19T00:42:54;99753.69;;;1.82;73.04
66762;BME280;53672;48.176;16.338;2023-11-19T00:47:55;99744.09;;;1.78;73.17
66762;BME280;53672;48.176;16.338;2023-11-19T00:52:56;99741.91;;;1.72;73.35
66762;BME280;53672;48.176;16.338;2023-11-19T00:57:57;99724.19;;;1.79;73.17
66762;BME280;53672;48.176;16.338;2023-11-19T01:02:57;99720.47;;;1.80;73.03
66762;BME280;53672;48.176;16.338;2023-11-19T01:07:59;99714.09;;;1.81;73.20
66762;BME280;53672;48.176;16.338;2023-11-19T01:12:59;99721.50;;;1.79;72.89
66762;BME280;53672;48.176;16.338;2023-11-19T01:18:00;99723.94;;;1.71;73.38
66762;BME280;53672;48.176;16.338;2023-11-19T01:23:02;99695.19;;;1.70;73.70
66762;BME280;53672;48.176;16.338;2023-11-19T01:28:02;99691.47;;;1.71;73.82
66762;BME280;53672;48.176;16.338;2023-11-19T01:33:03;99691.09;;;1.75;73.73
66762;BME280;53672;48.176;16.338;2023-11-19T01:38:05;99687.28;;;1.78;73.48
66762;BME280;53672;48.176;16.338;2023-11-19T01:43:05;99688.97;;;1.90;72.95
66762;BME280;53672;48.176;16.338;2023-11-19T01:48:06;99680.44;;;2.06;72.49
66762;BME280;53672;48.176;16.338;2023-11-19T01:53:07;99673.22;;;1.95;73.37
66762;BME280;53672;48.176;16.338;2023-11-19T01:58:08;99663.84;;;1.99;73.11
66762;BME280;53672;48.176;16.338;2023-11-19T02:03:09;99646.13;;;2.06;72.82
66762;BME280;53672;48.176;16.338;2023-11-19T02:08:11;99643.16;;;2.09;73.46
66762;BME280;53672;48.176;16.338;2023-11-19T02:13:11;99644.22;;;2.18;73.46
66762;BME280;53672;48.176;16.338;2023-11-19T02:18:22;99625.34;;;2.27;73.54
66762;BME280;53672;48.176;16.338;2023-11-19T02:23:26;99616.44;;;2.36;73.51
66762;BME280;53672;48.176;16.338;2023-11-19T02:28:28;99585.84;;;2.45;73.70
66762;BME280;53672;48.176;16.338;2023-11-19T02:33:29;99575.19;;;2.53;72.61
66762;BME280;53672;48.176;16.338;2023-11-19T02:38:29;99575.63;;;2.58;72.84
66762;BME280;53672;48.176;16.338;2023-11-19T02:43:31;99583.97;;;2.67;73.44
66762;BME280;53672;48.176;16.338;2023-11-19T02:48:31;99584.50;;;2.40;76.20
66762;BME280;53672;48.176;16.338;2023-11-19T02:53:32;99578.19;;;2.30;77.97
66762;BME280;53672;48.176;16.338;2023-11-19T02:58:34;99574.69;;;2.18;79.69
66762;BME280;53672;48.176;16.338;2023-11-19T03:03:34;99555.00;;;1.96;81.33
66762;BME280;53672;48.176;16.338;2023-11-19T03:08:35;99555.03;;;1.84;82.69
66762;BME280;53672;48.176;16.338;2023-11-19T03:13:37;99539.00;;;1.72;83.57
66762;BME280;53672;48.176;16.338;2023-11-19T03:18:38;99542.94;;;1.68;84.38
66762;BME280;53672;48.176;16.338;2023-11-19T03:23:38;99517.41;;;1.61;85.44
66762;BME280;53672;48.176;16.338;2023-11-19T03:28:40;99507.09;;;1.55;86.21
66762;BME280;53672;48.176;16.338;2023-11-19T03:33:40;99503.88;;;1.61;86.05
66762;BME280;53672;48.176;16.338;2023-11-19T03:38:41;99494.56;;;1.54;86.71
66762;BME280;53672;48.176;16.338;2023-11-19T03:43:42;99487.56;;;1.51;87.29
66762;BME280;53672;48.176;16.338;2023-11-19T03:48:43;99489.41;;;1.51;88.46
66762;BME280;53672;48.176;16.338;2023-11-19T03:53:43;99464.81;;;1.54;88.63
66762;BME280;53672;48.176;16.338;2023-11-19T03:58:46;99466.00;;;1.61;88.40
66762;BME280;53672;48.176;16.338;2023-11-19T04:03:46;99461.09;;;1.55;88.20
66762;BME280;53672;48.176;16.338;2023-11-19T04:08:46;99440.19;;;1.57;88.41
66762;BME280;53672;48.176;16.338;2023-11-19T04:13:48;99433.25;;;1.64;88.51
66762;BME280;53672;48.176;16.338;2023-11-19T04:18:49;99422.97;;;1.58;88.40
66762;BME280;53672;48.176;16.338;2023-11-19T04:23:49;99405.78;;;1.59;89.40
66762;BME280;53672;48.176;16.338;2023-11-19T04:28:51;99404.78;;;1.60;89.17
66762;BME280;53672;48.176;16.338;2023-11-19T04:33:51;99417.91;;;1.64;89.07
66762;BME280;53672;48.176;16.338;2023-11-19T04:38:52;99410.19;;;1.60;89.35
66762;BME280;53672;48.176;16.338;2023-11-19T04:43:54;99407.94;;;1.65;89.58
66762;BME280;53672;48.176;16.338;2023-11-19T04:48:54;99412.09;;;1.69;90.36
66762;BME280;53672;48.176;16.338;2023-11-19T04:53:54;99407.22;;;1.63;89.90
66762;BME280;53672;48.176;16.338;2023-11-19T04:58:56;99391.47;;;1.68;90.48
66762;BME280;53672;48.176;16.338;2023-11-19T05:03:57;99370.78;;;1.67;90.58
66762;BME280;53672;48.176;16.338;2023-11-19T05:08:58;99362.91;;;1.54;89.42
66762;BME280;53672;48.176;16.338;2023-11-19T05:14:02;99367.13;;;1.47;90.34
66762;BME280;53672;48.176;16.338;2023-11-19T05:19:03;99366.72;;;1.52;90.53
66762;BME280;53672;48.176;16.338;2023-11-19T05:24:04;99363.22;;;1.61;90.80
66762;BME280;53672;48.176;16.338;2023-11-19T05:29:06;99354.19;;;1.51;90.42
66762;BME280;53672;48.176;16.338;2023-11-19T05:34:06;99358.78;;;1.60;90.68
66762;BME280;53672;48.176;16.338;2023-11-19T05:39:06;99339.84;;;1.60;90.46
66762;BME280;53672;48.176;16.338;2023-11-19T05:44:08;99332.22;;;1.65;90.42
66762;BME280;53672;48.176;16.338;2023-11-19T05:49:09;99324.56;;;1.70;90.15
66762;BME280;53672;48.176;16.338;2023-11-19T05:54:10;99320.38;;;1.66;90.46
66762;BME280;53672;48.176;16.338;2023-11-19T05:59:11;99316.13;;;1.73;90.74
66762;BME280;53672;48.176;16.338;2023-11-19T06:04:12;99311.69;;;1.62;90.38
66762;BME280;53672;48.176;16.338;2023-11-19T06:09:12;99322.56;;;1.72;91.02
66762;BME280;53672;48.176;16.338;2023-11-19T06:14:14;99318.78;;;1.54;91.17
66762;BME280;53672;48.176;16.338;2023-11-19T06:19:14;99320.47;;;1.55;91.67
66762;BME280;53672;48.176;16.338;2023-11-19T06:24:15;99319.13;;;1.70;91.42
66762;BME280;53672;48.176;16.338;2023-11-19T06:29:17;99315.16;;;1.74;91.53
66762;BME280;53672;48.176;16.338;2023-11-19T06:34:17;99306.72;;;1.67;92.02
66762;BME280;53672;48.176;16.338;2023-11-19T06:39:17;99299.91;;;1.73;92.15
66762;BME280;53672;48.176;16.338;2023-11-19T06:44:19;99299.91;;;1.73;92.32
66762;BME280;53672;48.176;16.338;2023-11-19T06:49:20;99300.66;;;1.75;92.28
66762;BME280;53672;48.176;16.338;2023-11-19T06:54:20;99293.53;;;1.74;92.28
66762;BME280;53672;48.176;16.338;2023-11-19T06:59:22;99280.91;;;1.84;92.78
66762;BME280;53672;48.176;16.338;2023-11-19T07:04:22;99280.75;;;1.85;92.81
66762;BME280;53672;48.176;16.338;2023-11-19T07:09:23;99280.06;;;1.93;93.03
66762;BME280;53672;48.176;16.338;2023-11-19T07:14:24;99261.13;;;1.93;92.37
66762;BME280;53672;48.176;16.338;2023-11-19T07:19:25;99261.66;;;1.87;92.16
66762;BME280;53672;48.176;16.338;2023-11-19T07:24:25;99262.38;;;1.89;92.29
66762;BME280;53672;48.176;16.338;2023-11-19T07:29:27;99257.69;;;1.91;91.78
66762;BME280;53672;48.176;16.338;2023-11-19T07:34:28;99250.19;;;2.04;92.56
66762;BME280;53672;48.176;16.338;2023-11-19T07:39:28;99228.13;;;2.09;92.37
66762;BME280;53672;48.176;16.338;2023-11-19T07:44:30;99225.53;;;1.98;92.19
66762;BME280;53672;48.176;16.338;2023-11-19T07:49:30;99227.81;;;2.02;91.92
66762;BME280;53672;48.176;16.338;2023-11-19T07:54:31;99219.00;;;2.00;92.34
66762;BME280;53672;48.176;16.338;2023-11-19T07:59:32;99224.28;;;2.11;91.76
66762;BME280;53672;48.176;16.338;2023-11-19T08:04:33;99222.16;;;2.24;92.09
66762;BME280;53672;48.176;16.338;2023-11-19T08:09:33;99239.56;;;2.41;91.70
66762;BME280;53672;48.176;16.338;2023-11-19T08:14:35;99242.41;;;2.58;92.05
66762;BME280;53672;48.176;16.338;2023-11-19T08:19:36;99223.88;;;2.73;90.82
66762;BME280;53672;48.176;16.338;2023-11-19T08:24:36;99232.28;;;2.89;90.18
66762;BME280;53672;48.176;16.338;2023-11-19T08:29:38;99224.97;;;2.99;88.70
66762;BME280;53672;48.176;16.338;2023-11-19T08:34:38;99222.41;;;2.88;88.61
66762;BME280;53672;48.176;16.338;2023-11-19T08:39:39;99208.25;;;3.04;89.31
66762;BME280;53672;48.176;16.338;2023-11-19T08:44:41;99200.38;;;3.10;88.70
66762;BME280;53672;48.176;16.338;2023-11-19T08:49:41;99205.69;;;3.12;88.93
66762;BME280;53672;48.176;16.338;2023-11-19T08:54:42;99205.78;;;3.20;88.91
66762;BME280;53672;48.176;16.338;2023-11-19T08:59:44;99217.19;;;3.33;89.21
66762;BME280;53672;48.176;16.338;2023-11-19T09:04:44;99241.28;;;3.73;85.76
66762;BME280;53672;48.176;16.338;2023-11-19T09:09:45;99238.63;;;3.90;85.37
66762;BME280;53672;48.176;16.338;2023-11-19T09:14:46;99219.63;;;3.63;85.59
66762;BME280;53672;48.176;16.338;2023-11-19T09:19:47;99210.97;;;3.77;86.22
66762;BME280;53672;48.176;16.338;2023-11-19T09:24:47;99186.44;;;3.79;86.23
66762;BME280;53672;48.176;16.338;2023-11-19T09:29:49;99178.94;;;4.08;85.60
66762;BME280;53672;48.176;16.338;2023-11-19T09:34:49;99167.47;;;4.32;84.71
66762;BME280;53672;48.176;16.338;2023-11-19T09:39:50;99158.72;;;4.20;87.04
66762;BME280;53672;48.176;16.338;2023-11-19T09:44:53;99151.31;;;4.48;83.35
66762;BME280;53672;48.176;16.338;2023-11-19T09:49:55;99166.63;;;4.31;83.32
66762;BME280;53672;48.176;16.338;2023-11-19T09:54:55;99153.09;;;4.39;83.01
66762;BME280;53672;48.176;16.338;2023-11-19T09:59:57;99151.63;;;4.10;84.15
66762;BME280;53672;48.176;16.338;2023-11-19T10:04:59;99132.78;;;4.26;84.46
66762;BME280;53672;48.176;16.338;2023-11-19T10:10:00;99130.59;;;4.47;82.96
66762;BME280;53672;48.176;16.338;2023-11-19T10:15:02;99127.88;;;4.47;83.01
66762;BME280;53672;48.176;16.338;2023-11-19T10:20:03;99136.34;;;4.44;83.04
66762;BME280;53672;48.176;16.338;2023-11-19T10:25:04;99137.56;;;4.32;85.39
66762;BME280;53672;48.176;16.338;2023-11-19T10:30:07;99131.94;;;4.43;84.57
66762;BME280;53672;48.176;16.338;2023-11-19T10:35:08;99107.59;;;4.41;84.81
66762;BME280;53672;48.176;16.338;2023-11-19T10:40:10;99110.31;;;4.41;84.64
66762;BME280;53672;48.176;16.338;2023-11-19T10:45:23;99096.66;;;4.51;85.10
66762;BME280;53672;48.176;16.338;2023-11-19T10:50:23;99079.25;;;4.87;82.99
66762;BME280;53672;48.176;16.338;2023-11-19T10:55:27;99076.31;;;5.06;83.32
66762;BME280;53672;48.176;16.338;2023-11-19T11:00:34;99074.06;;;4.76;82.00
66762;BME280;53672;48.176;16.338;2023-11-19T11:05:37;99073.06;;;4.77;84.54
66762;BME280;53672;48.176;16.338;2023-11-19T11:10:43;99049.19;;;4.63;85.97
66762;BME280;53672;48.176;16.338;2023-11-19T11:15:46;99037.84;;;4.67;86.64
66762;BME280;53672;48.176;16.338;2023-11-19T11:20:47;99039.53;;;4.68;86.06
66762;BME280;53672;48.176;16.338;2023-11-19T11:25:54;99044.03;;;4.52;87.32
66762;BME280;53672;48.176;16.338;2023-11-19T11:31:15;99033.03;;;4.61;87.85
66762;BME280;53672;48.176;16.338;2023-11-19T11:36:22;99036.19;;;4.49;87.56
66762;BME280;53672;48.176;16.338;2023-11-19T11:41:23;99054.88;;;4.52;88.53
66762;BME280;53672;48.176;16.338;2023-11-19T11:46:56;99047.22;;;4.47;89.97
66762;BME280;53672;48.176;16.338;2023-11-19T11:52:00;99056.19;;;4.48;88.80
66762;BME280;53672;48.176;16.338;2023-11-19T11:57:02;99043.56;;;4.39;90.03
66762;BME280;53672;48.176;16.338;2023-11-19T12:02:07;99039.53;;;4.43;90.08
66762;BME280;53672;48.176;16.338;2023-11-19T12:07:12;99040.16;;;4.37;90.59
66762;BME280;53672;48.176;16.338;2023-11-19T12:12:18;99030.91;;;4.47;89.58
66762;BME280;53672;48.176;16.338;2023-11-19T12:17:43;99035.59;;;4.63;90.77
66762;BME280;53672;48.176;16.338;2023-11-19T12:22:47;99033.66;;;4.81;88.52
66762;BME280;53672;48.176;16.338;2023-11-19T12:27:49;99036.13;;;4.92;87.96
66762;BME280;53672;48.176;16.338;2023-11-19T12:32:52;99031.72;;;4.91;89.52
66762;BME280;53672;48.176;16.338;2023-11-19T12:37:52;99017.16;;;5.00;87.88
66762;BME280;53672;48.176;16.338;2023-11-19T12:42:54;99022.59;;;5.00;88.30
66762;BME280;53672;48.176;16.338;2023-11-19T12:48:06;99013.06;;;5.04;87.71
66762;BME280;53672;48.176;16.338;2023-11-19T12:53:06;98995.91;;;5.04;88.10
66762;BME280;53672;48.176;16.338;2023-11-19T12:58:07;99003.19;;;4.95;91.03
66762;BME280;53672;48.176;16.338;2023-11-19T13:03:08;98998.59;;;4.96;91.67
66762;BME280;53672;48.176;16.338;2023-11-19T13:08:09;99002.34;;;5.03;90.93
66762;BME280;53672;48.176;16.338;2023-11-19T13:13:10;98991.13;;;4.98;90.72
66762;BME280;53672;48.176;16.338;2023-11-19T13:18:12;98985.41;;;4.83;91.69
66762;BME280;53672;48.176;16.338;2023-11-19T13:23:13;98977.97;;;4.85;92.26
66762;BME280;53672;48.176;16.338;2023-11-19T13:28:13;98986.19;;;5.01;91.07
66762;BME280;53672;48.176;16.338;2023-11-19T13:33:15;98982.69;;;4.83;91.22
66762;BME280;53672;48.176;16.338;2023-11-19T13:38:15;99000.34;;;4.79;91.95
66762;BME280;53672;48.176;16.338;2023-11-19T13:43:16;98986.13;;;4.85;91.90
66762;BME280;53672;48.176;16.338;2023-11-19T13:48:18;98971.25;;;5.05;91.67
66762;BME280;53672;48.176;16.338;2023-11-19T13:53:18;98956.69;;;5.22;91.17
66762;BME280;53672;48.176;16.338;2023-11-19T13:58:19;98951.63;;;5.35;90.69
66762;BME280;53672;48.176;16.338;2023-11-19T14:03:20;98952.97;;;5.31;90.22
66762;BME280;53672;48.176;16.338;2023-11-19T14:08:21;98948.00;;;5.11;91.89
66762;BME280;53672;48.176;16.338;2023-11-19T14:13:22;98954.44;;;5.10;92.42
66762;BME280;53672;48.176;16.338;2023-11-19T14:18:24;98966.22;;;5.18;90.57
66762;BME280;53672;48.176;16.338;2023-11-19T14:23:24;98954.78;;;5.15;91.98
66762;BME280;53672;48.176;16.338;2023-11-19T14:28:25;98946.81;;;5.13;91.65
66762;BME280;53672;48.176;16.338;2023-11-19T14:33:26;98937.06;;;5.03;92.88
66762;BME280;53672;48.176;16.338;2023-11-19T14:38:27;98952.19;;;4.97;92.24
66762;BME280;53672;48.176;16.338;2023-11-19T14:43:27;98945.75;;;5.06;92.58
66762;BME280;53672;48.176;16.338;2023-11-19T14:48:29;98967.28;;;4.92;93.53
66762;BME280;53672;48.176;16.338;2023-11-19T14:53:29;98962.72;;;4.92;92.91
66762;BME280;53672;48.176;16.338;2023-11-19T14:58:30;98957.94;;;4.94;93.68
66762;BME280;53672;48.176;16.338;2023-11-19T15:03:32;98956.97;;;5.03;93.52
66762;BME280;53672;48.176;16.338;2023-11-19T15:08:32;98966.53;;;5.07;93.72
66762;BME280;53672;48.176;16.338;2023-11-19T15:13:32;98958.38;;;5.07;93.86
66762;BME280;53672;48.176;16.338;2023-11-19T15:18:34;98964.75;;;4.98;92.77
66762;BME280;53672;48.176;16.338;2023-11-19T15:23:35;98968.31;;;4.91;93.20
66762;BME280;53672;48.176;16.338;2023-11-19T15:28:35;98964.94;;;4.71;93.98
66762;BME280;53672;48.176;16.338;2023-11-19T15:33:37;98974.81;;;4.72;94.71
66762;BME280;53672;48.176;16.338;2023-11-19T15:38:38;98959.19;;;4.66;94.85
66762;BME280;53672;48.176;16.338;2023-11-19T15:43:38;98962.22;;;4.63;94.62
66762;BME280;53672;48.176;16.338;2023-11-19T15:48:40;98933.13;;;4.55;94.90
66762;BME280;53672;48.176;16.338;2023-11-19T15:53:40;98948.53;;;4.47;95.04
66762;BME280;53672;48.176;16.338;2023-11-19T15:58:41;98955.31;;;4.43;94.66
66762;BME280;53672;48.176;16.338;2023-11-19T16:03:43;98952.69;;;4.33;94.90
66762;BME280;53672;48.176;16.338;2023-11-19T16:08:43;98954.19;;;4.28;95.76
66762;BME280;53672;48.176;16.338;2023-11-19T16:13:43;98964.75;;;4.31;95.00
66762;BME280;53672;48.176;16.338;2023-11-19T16:18:45;98943.28;;;4.20;95.70
66762;BME280;53672;48.176;16.338;2023-11-19T16:23:46;98931.34;;;4.13;95.45
66762;BME280;53672;48.176;16.338;2023-11-19T16:28:46;98946.41;;;4.07;95.39
66762;BME280;53672;48.176;16.338;2023-11-19T16:33:48;98948.34;;;4.15;96.03
66762;BME280;53672;48.176;16.338;2023-11-19T16:38:48;98948.13;;;4.08;95.38
66762;BME280;53672;48.176;16.338;2023-11-19T16:43:49;98947.91;;;4.02;95.85
66762;BME280;53672;48.176;16.338;2023-11-19T16:48:51;98958.56;;;3.95;96.55
66762;BME280;53672;48.176;16.338;2023-11-19T16:53:51;98931.22;;;3.96;96.09
66762;BME280;53672;48.176;16.338;2023-11-19T16:58:52;98935.13;;;3.94;96.21
66762;BME280;53672;48.176;16.338;2023-11-19T17:03:53;98936.94;;;3.85;96.75
66762;BME280;53672;48.176;16.338;2023-11-19T17:08:54;98933.53;;;3.83;96.18
66762;BME280;53672;48.176;16.338;2023-11-19T17:13:54;98946.63;;;3.88;95.95
66762;BME280;53672;48.176;16.338;2023-11-19T17:18:56;98941.03;;;3.89;95.80
66762;BME280;53672;48.176;16.338;2023-11-19T17:23:57;98933.00;;;4.06;96.37
66762;BME280;53672;48.176;16.338;2023-11-19T17:28:57;98925.53;;;4.08;96.56
66762;BME280;53672;48.176;16.338;2023-11-19T17:33:59;98924.00;;;4.05;96.11
66762;BME280;53672;48.176;16.338;2023-11-19T17:38:59;98936.13;;;4.19;95.48
66762;BME280;53672;48.176;16.338;2023-11-19T17:44:00;98947.91;;;4.02;96.25
66762;BME280;53672;48.176;16.338;2023-11-19T17:49:01;98929.31;;;3.89;96.65
66762;BME280;53672;48.176;16.338;2023-11-19T17:54:02;98920.63;;;3.85;96.27
66762;BME280;53672;48.176;16.338;2023-11-19T17:59:02;98924.34;;;3.84;95.72
66762;BME280;53672;48.176;16.338;2023-11-19T18:04:05;98930.69;;;3.93;95.00
66762;BME280;53672;48.176;16.338;2023-11-19T18:09:05;98934.34;;;3.84;95.81
66762;BME280;53672;48.176;16.338;2023-11-19T18:14:05;98943.31;;;3.76;96.01
66762;BME280;53672;48.176;16.338;2023-11-19T18:19:07;98947.56;;;3.79;96.34
66762;BME280;53672;48.176;16.338;2023-11-19T18:24:08;98947.69;;;3.95;95.83
66762;BME280;53672;48.176;16.338;2023-11-19T18:29:09;98944.81;;;3.96;95.92
66762;BME280;53672;48.176;16.338;2023-11-19T18:34:12;98948.13;;;3.90;95.94
66762;BME280;53672;48.176;16.338;2023-11-19T18:39:14;98948.75;;;4.28;94.97
66762;BME280;53672;48.176;16.338;2023-11-19T18:44:15;98939.69;;;4.45;92.95
66762;BME280;53672;48.176;16.338;2023-11-19T18:49:19;98933.28;;;4.54;92.72
66762;BME280;53672;48.176;16.338;2023-11-19T18:54:20;98937.06;;;4.61;91.86
66762;BME280;53672;48.176;16.338;2023-11-19T18:59:22;98938.94;;;4.35;93.65
66762;BME280;53672;48.176;16.338;2023-11-19T19:04:25;98943.00;;;4.31;94.38
66762;BME280;53672;48.176;16.338;2023-11-19T19:09:27;98955.34;;;4.25;95.24
66762;BME280;53672;48.176;16.338;2023-11-19T19:14:29;98969.97;;;4.24;96.21
66762;BME280;53672;48.176;16.338;2023-11-19T19:19:32;98967.84;;;4.36;95.54
66762;BME280;53672;48.176;16.338;2023-11-19T19:24:33;98961.75;;;4.42;95.44
66762;BME280;53672;48.176;16.338;2023-11-19T19:29:35;98960.06;;;4.41;96.41
66762;BME280;53672;48.176;16.338;2023-11-19T19:34:37;98979.41;;;4.46;96.50
66762;BME280;53672;48.176;16.338;2023-11-19T19:39:37;99014.47;;;4.57;96.34
66762;BME280;53672;48.176;16.338;2023-11-19T19:44:38;99029.09;;;5.07;93.93
66762;BME280;53672;48.176;16.338;2023-11-19T19:49:40;99010.19;;;5.06;92.61
66762;BME280;53672;48.176;16.338;2023-11-19T19:54:40;99009.25;;;4.89;93.26
66762;BME280;53672;48.176;16.338;2023-11-19T19:59:41;99000.84;;;5.00;92.19
66762;BME280;53672;48.176;16.338;2023-11-19T20:04:45;98993.28;;;4.86;91.14
66762;BME280;53672;48.176;16.338;2023-11-19T20:09:45;98985.81;;;4.88;92.36
66762;BME280;53672;48.176;16.338;2023-11-19T20:14:46;99002.84;;;4.98;91.13
66762;BME280;53672;48.176;16.338;2023-11-19T20:19:47;99008.63;;;4.95;91.46
66762;BME280;53672;48.176;16.338;2023-11-19T20:24:48;99024.94;;;4.95;91.11
66762;BME280;53672;48.176;16.338;2023-11-19T20:29:48;98997.75;;;4.95;89.71
66762;BME280;53672;48.176;16.338;2023-11-19T20:34:50;98995.91;;;4.78;90.12
66762;BME280;53672;48.176;16.338;2023-11-19T20:39:51;98982.28;;;4.70;89.25
66762;BME280;53672;48.176;16.338;2023-11-19T20:44:51;98968.28;;;4.57;89.86
66762;BME280;53672;48.176;16.338;2023-11-19T20:49:53;98968.91;;;4.43;90.79
66762;BME280;53672;48.176;16.338;2023-11-19T20:54:53;98978.84;;;4.34;91.08
66762;BME280;53672;48.176;16.338;2023-11-19T20:59:54;98986.69;;;4.37;90.66
66762;BME280;53672;48.176;16.338;2023-11-19T21:04:56;98984.84;;;4.46;90.75
66762;BME280;53672;48.176;16.338;2023-11-19T21:09:56;98990.00;;;4.57;91.16
66762;BME280;53672;48.176;16.338;2023-11-19T21:14:56;98977.72;;;4.70;90.75
66762;BME280;53672;48.176;16.338;2023-11-19T21:19:58;98986.38;;;4.74;91.85
66762;BME280;53672;48.176;16.338;2023-11-19T21:24:59;98987.19;;;4.92;91.50
66762;BME280;53672;48.176;16.338;2023-11-19T21:29:59;99004.88;;;4.96;91.94
66762;BME280;53672;48.176;16.338;2023-11-19T21:35:01;98989.59;;;4.95;93.03
66762;BME280;53672;48.176;16.338;2023-11-19T21:40:02;98990.28;;;4.97;92.68
66762;BME280;53672;48.176;16.338;2023-11-19T21:45:03;98973.91;;;4.89;92.53
66762;BME280;53672;48.176;16.338;2023-11-19T21:50:05;98980.06;;;4.91;93.14
66762;BME280;53672;48.176;16.338;2023-11-19T21:55:06;98994.44;;;4.84;92.80
66762;BME280;53672;48.176;16.338;2023-11-19T22:00:08;98993.88;;;4.80;93.29
66762;BME280;53672;48.176;16.338;2023-11-19T22:05:10;98963.84;;;4.82;92.68
66762;BME280;53672;48.176;16.338;2023-11-19T22:10:11;98952.63;;;4.85;93.09
66762;BME280;53672;48.176;16.338;2023-11-19T22:15:12;98949.78;;;4.86;93.32
66762;BME280;53672;48.176;16.338;2023-11-19T22:20:14;98989.91;;;4.92;93.25
66762;BME280;53672;48.176;16.338;2023-11-19T22:25:14;99018.19;;;5.07;93.29
66762;BME280;53672;48.176;16.338;2023-11-19T22:30:15;98997.81;;;5.19;92.89
66762;BME280;53672;48.176;16.338;2023-11-19T22:35:17;98990.38;;;5.29;93.94
66762;BME280;53672;48.176;16.338;2023-11-19T22:40:17;99006.44;;;5.65;94.28
66762;BME280;53672;48.176;16.338;2023-11-19T22:45:18;98956.44;;;5.90;93.62
66762;BME280;53672;48.176;16.338;2023-11-19T22:50:19;98949.63;;;6.26;94.59
66762;BME280;53672;48.176;16.338;2023-11-19T22:55:20;98951.28;;;6.51;94.21
66762;BME280;53672;48.176;16.338;2023-11-19T23:00:20;98965.53;;;6.69;93.89
66762;BME280;53672;48.176;16.338;2023-11-19T23:05:22;98958.03;;;6.71;93.57
66762;BME280;53672;48.176;16.338;2023-11-19T23:10:23;98973.53;;;6.71;93.63
66762;BME280;53672;48.176;16.338;2023-11-19T23:15:23;98983.56;;;6.78;93.79
66762;BME280;53672;48.176;16.338;2023-11-19T23:20:25;98978.06;;;6.95;93.39
66762;BME280;53672;48.176;16.338;2023-11-19T23:25:26;98979.53;;;7.13;93.01
66762;BME280;53672;48.176;16.338;2023-11-19T23:30:26;98969.75;;;7.19;92.80
66762;BME280;53672;48.176;16.338;2023-11-19T23:35:28;98971.81;;;7.17;92.63
66762;BME280;53672;48.176;16.338;2023-11-19T23:40:29;98956.66;;;7.14;92.86
66762;BME280;53672;48.176;16.338;2023-11-19T23:45:29;98985.13;;;7.12;92.77
66762;BME280;53672;48.176;16.338;2023-11-19T23:50:31;98963.69;;;7.09;92.85
66762;BME280;53672;48.176;16.338;2023-11-19T23:55:31;98961.44;;;7.12;93.33
